createdAt,value
2018-05-14T00:00:14.502Z,3.47
2018-05-14T00:02:41.992Z,3.20
2018-05-14T00:07:42.270Z,3.10
2018-05-14T00:10:10.017Z,3.00
2018-05-14T00:12:38.251Z,3.30
2018-05-14T00:15:07.133Z,3.40
2018-05-14T00:17:34.905Z,3.27
2018-05-14T00:20:03.360Z,3.00
2018-05-14T00:22:30.836Z,3.13
2018-05-14T00:24:58.366Z,3.27
2018-05-14T00:27:26.943Z,3.20
2018-05-14T00:29:55.348Z,2.83
2018-05-14T00:32:23.411Z,3.10
2018-05-14T00:34:51.522Z,2.80
2018-05-14T00:37:19.361Z,3.30
2018-05-14T00:39:46.895Z,3.30
2018-05-14T00:42:15.652Z,2.90
2018-05-14T00:44:48.216Z,3.40
2018-05-14T00:47:15.734Z,2.77
2018-05-14T00:49:43.217Z,3.00
2018-05-14T00:52:10.764Z,2.93
2018-05-14T00:54:38.299Z,3.30
2018-05-14T00:57:05.803Z,2.77
2018-05-14T00:59:33.320Z,3.27
2018-05-14T01:02:00.856Z,3.00
2018-05-14T01:04:28.422Z,3.10
2018-05-14T01:06:55.902Z,3.13
2018-05-14T01:09:23.455Z,3.33
2018-05-14T01:11:50.935Z,3.50
2018-05-14T01:14:18.452Z,3.10
2018-05-14T01:16:45.976Z,3.20
2018-05-14T01:19:13.478Z,3.00
2018-05-14T01:21:41.163Z,2.90
2018-05-14T01:24:08.654Z,2.90
2018-05-14T01:26:36.187Z,3.20
2018-05-14T01:29:03.672Z,3.20
2018-05-14T01:31:31.199Z,3.10
2018-05-14T01:33:59.972Z,2.97
2018-05-14T01:36:27.664Z,3.17
2018-05-14T01:38:55.911Z,3.10
2018-05-14T01:41:23.435Z,3.37
2018-05-14T01:43:50.911Z,3.33
2018-05-14T01:46:19.141Z,3.10
2018-05-14T01:48:46.855Z,3.10
2018-05-14T01:51:14.335Z,3.20
2018-05-14T01:53:41.814Z,3.50
2018-05-14T01:56:09.744Z,3.43
2018-05-14T01:58:38.125Z,3.00
2018-05-14T02:01:06.107Z,3.10
2018-05-14T02:03:38.742Z,3.10
2018-05-14T02:06:06.367Z,3.07
2018-05-14T02:08:33.911Z,3.23
2018-05-14T02:11:01.412Z,3.07
2018-05-14T02:13:31.302Z,2.87
2018-05-14T02:16:02.492Z,3.20
2018-05-14T02:18:33.110Z,3.17
2018-05-14T02:23:55.696Z,3.40
2018-05-14T02:26:23.659Z,3.03
2018-05-14T02:33:58.610Z,3.27
2018-05-14T02:36:27.627Z,2.90
2018-05-14T02:38:57.028Z,3.30
2018-05-14T02:41:26.747Z,3.33
2018-05-14T02:43:57.785Z,3.00
2018-05-14T02:46:25.280Z,2.73
2018-05-14T02:51:28.339Z,3.27
2018-05-14T02:56:31.636Z,3.30
2018-05-14T02:58:59.898Z,3.27
2018-05-14T03:04:00.996Z,2.90
2018-05-14T03:06:32.684Z,3.10
2018-05-14T03:09:01.323Z,3.50
2018-05-14T03:11:29.436Z,3.17
2018-05-14T03:13:57.051Z,3.20
2018-05-14T03:16:26.262Z,3.40
2018-05-14T03:21:30.523Z,3.30
2018-05-14T03:24:04.261Z,3.37
2018-05-14T03:29:05.087Z,3.00
2018-05-14T03:31:32.799Z,2.80
2018-05-14T03:34:00.504Z,2.80
2018-05-14T03:36:30.175Z,3.73
2018-05-14T03:38:58.552Z,3.10
2018-05-14T03:41:26.711Z,3.50
2018-05-14T03:44:04.754Z,3.03
2018-05-14T03:46:32.239Z,3.17
2018-05-14T03:48:59.718Z,3.37
2018-05-14T03:51:28.005Z,3.33
2018-05-14T03:53:55.562Z,3.60
2018-05-14T03:56:23.560Z,3.40
2018-05-14T03:59:03.780Z,3.17
2018-05-14T04:04:36.749Z,3.47
2018-05-14T04:07:04.874Z,3.30
2018-05-14T04:09:34.086Z,2.80
2018-05-14T04:12:05.119Z,3.30
2018-05-14T04:14:34.955Z,3.10
2018-05-14T04:17:02.475Z,2.93
2018-05-14T04:19:29.977Z,3.67
2018-05-14T04:21:58.803Z,3.20
2018-05-14T04:24:26.808Z,3.17
2018-05-14T04:26:54.238Z,3.20
2018-05-14T04:29:21.728Z,2.90
2018-05-14T04:31:49.456Z,3.20
2018-05-14T04:34:17.035Z,3.00
2018-05-14T04:36:44.511Z,3.50
2018-05-14T04:39:12.198Z,3.37
2018-05-14T04:41:40.463Z,3.23
2018-05-14T04:44:07.974Z,3.10
2018-05-14T04:46:36.185Z,3.40
2018-05-14T04:49:04.035Z,3.23
2018-05-14T04:51:31.530Z,3.40
2018-05-14T04:54:00.114Z,3.33
2018-05-14T04:56:27.819Z,3.33
2018-05-14T04:58:55.330Z,3.50
2018-05-14T05:01:23.590Z,3.30
2018-05-14T05:03:51.434Z,3.13
2018-05-14T05:06:19.039Z,3.33
2018-05-14T05:08:48.091Z,3.27
2018-05-14T05:11:15.573Z,3.37
2018-05-14T05:13:43.143Z,3.27
2018-05-14T05:16:11.307Z,3.30
2018-05-14T05:18:38.795Z,3.07
2018-05-14T05:21:07.763Z,3.00
2018-05-14T05:23:43.706Z,3.50
2018-05-14T05:26:11.216Z,3.20
2018-05-14T05:28:38.699Z,3.33
2018-05-14T05:31:06.188Z,3.33
2018-05-14T05:33:49.675Z,3.33
2018-05-14T05:36:18.296Z,3.37
2018-05-14T05:38:47.399Z,3.30
2018-05-14T05:41:15.372Z,3.23
2018-05-14T05:43:44.127Z,3.70
2018-05-14T05:46:11.647Z,3.27
2018-05-14T05:48:40.203Z,3.57
2018-05-14T05:51:07.951Z,3.40
2018-05-14T05:56:16.275Z,3.40
2018-05-14T05:58:43.823Z,3.20
2018-05-14T06:01:11.572Z,3.13
2018-05-14T06:03:39.200Z,3.17
2018-05-14T06:06:06.967Z,3.80
2018-05-14T06:08:34.567Z,3.40
2018-05-14T06:21:53.488Z,3.40
2018-05-14T06:27:11.075Z,2.90
2018-05-14T06:37:22.704Z,3.50
2018-05-14T06:42:26.264Z,3.00
2018-05-14T06:50:13.597Z,3.20
2018-05-14T07:00:50.747Z,3.07
2018-05-14T07:06:54.711Z,3.00
2018-05-14T07:11:59.189Z,3.50
2018-05-14T08:12:31.848Z,3.23
2018-05-14T08:15:07.445Z,2.90
2018-05-14T10:01:16.350Z,4.00
2018-05-14T10:03:48.039Z,3.40
2018-05-14T10:11:31.313Z,2.97
2018-05-14T10:14:24.161Z,2.97
2018-05-14T10:19:24.096Z,3.30
2018-05-14T10:21:53.905Z,3.00
2018-05-14T10:27:01.610Z,3.77
2018-05-14T10:29:37.234Z,3.53
2018-05-14T10:50:46.088Z,2.93
2018-05-14T10:53:16.937Z,2.83
2018-05-14T11:18:30.636Z,3.03
2018-05-14T11:28:48.941Z,2.83
2018-05-14T11:39:06.650Z,3.57
2018-05-14T11:44:54.274Z,3.30
2018-05-14T11:50:02.293Z,4.20
2018-05-14T11:55:13.397Z,3.47
2018-05-14T12:00:17.911Z,3.47
2018-05-14T12:02:47.387Z,3.40
2018-05-14T12:20:50.736Z,3.50
2018-05-14T12:25:54.042Z,3.30
2018-05-14T12:33:32.496Z,3.03
2018-05-14T12:38:34.391Z,3.33
2018-05-14T12:41:06.644Z,3.37
2018-05-14T12:46:14.291Z,3.30
2018-05-14T12:48:42.655Z,2.73
2018-05-14T12:53:50.772Z,4.00
2018-05-14T13:01:27.950Z,3.00
2018-05-14T13:03:57.237Z,4.67
2018-05-14T13:06:25.612Z,3.20
2018-05-14T13:08:53.935Z,3.07
2018-05-14T13:13:57.161Z,3.17
2018-05-14T13:16:25.387Z,3.53
2018-05-14T13:18:53.675Z,3.03
2018-05-14T13:21:22.988Z,3.30
2018-05-14T13:23:53.057Z,3.57
2018-05-14T13:26:23.444Z,3.20
2018-05-14T13:36:33.234Z,3.00
2018-05-14T13:39:05.798Z,3.20
2018-05-14T13:41:33.492Z,2.90
2018-05-14T13:44:01.535Z,3.13
2018-05-14T13:49:02.650Z,2.97
2018-05-14T13:51:30.673Z,3.30
2018-05-14T13:54:01.169Z,3.30
2018-05-14T13:56:28.648Z,3.30
2018-05-14T14:04:05.472Z,3.00
2018-05-14T14:06:32.975Z,3.17
2018-05-14T14:11:33.984Z,4.30
2018-05-14T14:19:18.189Z,3.90
2018-05-14T14:29:31.219Z,5.00
2018-05-14T14:32:04.116Z,4.50
2018-05-14T14:37:07.764Z,4.60
2018-05-14T14:39:37.784Z,4.53
2018-05-14T14:42:08.683Z,5.00
2018-05-14T14:49:43.093Z,4.80
2018-05-14T15:07:41.328Z,5.20
2018-05-14T15:15:23.687Z,5.28
2018-05-14T15:17:52.449Z,5.35
2018-05-14T15:20:20.696Z,4.90
2018-05-14T15:22:48.244Z,5.35
2018-05-14T15:25:18.392Z,4.68
2018-05-14T15:27:48.231Z,4.50
2018-05-14T15:30:15.751Z,5.12
2018-05-14T15:32:48.143Z,4.40
2018-05-14T15:35:15.615Z,4.82
2018-05-14T15:37:43.087Z,4.25
2018-05-14T15:40:10.812Z,4.90
2018-05-14T15:42:42.728Z,5.03
2018-05-14T15:45:11.246Z,4.57
2018-05-14T15:47:39.583Z,4.68
2018-05-14T15:52:41.518Z,5.00
2018-05-14T15:55:09.000Z,5.20
2018-05-14T15:57:36.707Z,4.35
2018-05-14T16:00:05.283Z,4.30
2018-05-14T16:02:34.808Z,4.65
2018-05-14T16:05:03.793Z,4.45
2018-05-14T16:07:31.847Z,4.07
2018-05-14T16:09:59.442Z,4.12
2018-05-14T16:12:28.135Z,4.55
2018-05-14T16:14:56.243Z,4.47
2018-05-14T16:17:27.875Z,4.62
2018-05-14T16:19:56.670Z,4.32
2018-05-14T16:22:25.187Z,4.18
2018-05-14T16:24:53.534Z,4.20
2018-05-14T16:30:41.668Z,4.45
2018-05-14T16:33:12.779Z,4.37
2018-05-14T16:35:40.783Z,4.03
2018-05-14T16:38:09.248Z,3.93
2018-05-14T16:43:11.578Z,4.43
2018-05-14T16:45:40.933Z,4.53
2018-05-14T16:50:49.086Z,5.37
2018-05-14T16:55:54.730Z,4.33
2018-05-14T16:58:22.257Z,5.27
2018-05-14T17:00:50.444Z,4.53
2018-05-14T17:05:53.002Z,4.30
2018-05-14T17:21:12.645Z,4.90
2018-05-14T17:23:51.735Z,4.90
2018-05-14T17:28:53.144Z,4.10
2018-05-14T17:31:22.400Z,5.37
2018-05-14T17:33:50.150Z,4.80
2018-05-14T17:38:54.349Z,4.80
2018-05-14T17:43:59.886Z,4.43
2018-05-14T17:56:54.339Z,4.70
2018-05-14T18:09:50.732Z,3.60
2018-05-14T18:14:55.791Z,3.53
2018-05-14T18:20:03.507Z,4.33
2018-05-14T18:22:40.412Z,4.23
2018-05-14T18:38:29.432Z,5.10
2018-05-14T18:41:03.013Z,5.27
2018-05-14T19:12:17.089Z,5.33
2018-05-14T19:24:34.606Z,4.03
2018-05-14T19:34:58.457Z,3.83
2018-05-14T19:48:04.169Z,4.20
2018-05-14T20:54:15.827Z,3.70
2018-05-14T20:56:45.463Z,3.30
2018-05-14T21:13:10.327Z,3.53
2018-05-14T21:15:57.499Z,3.50
2018-05-14T21:31:17.283Z,4.70
2018-05-14T21:39:05.642Z,4.37
2018-05-14T21:41:33.209Z,4.00
2018-05-14T21:49:11.369Z,3.97
2018-05-14T21:51:44.436Z,4.90
2018-05-14T21:57:28.203Z,4.50
2018-05-14T22:17:59.265Z,4.33
2018-05-14T22:20:27.155Z,4.70
2018-05-14T22:22:54.666Z,4.60
2018-05-14T22:25:22.326Z,4.73
2018-05-14T22:27:50.401Z,4.50
2018-05-14T22:35:23.811Z,4.60
2018-05-14T22:37:51.552Z,4.87
2018-05-14T22:40:22.917Z,5.10
2018-05-14T22:45:28.105Z,4.80
2018-05-14T22:47:55.655Z,5.10
2018-05-14T22:50:25.164Z,4.30
2018-05-14T22:52:52.859Z,5.00
2018-05-14T22:55:22.000Z,4.67
2018-05-14T22:57:49.507Z,4.63
2018-05-14T23:00:24.296Z,4.43
2018-05-14T23:02:52.502Z,4.27
2018-05-14T23:05:21.650Z,4.43
2018-05-14T23:07:49.438Z,4.57
2018-05-14T23:10:17.884Z,5.23
2018-05-14T23:12:46.310Z,5.13
2018-05-14T23:15:13.860Z,4.83
2018-05-14T23:17:42.062Z,4.83
2018-05-14T23:20:09.542Z,4.73
2018-05-14T23:22:42.602Z,4.90
2018-05-14T23:25:10.200Z,5.00
2018-05-14T23:27:38.002Z,4.90
2018-05-14T23:30:06.284Z,4.40
2018-05-14T23:35:16.541Z,4.80
2018-05-14T23:37:49.271Z,4.87
2018-05-14T23:40:18.443Z,4.57
2018-05-14T23:47:52.896Z,4.83
